sensor_id;sensor_type;location;lat;lon;timestamp;pressure;altitude;pressure_sealevel;temperature;humidity
12763;BME280;6445;52.490;13.378;2022-10-31T00:01:24;117115.03;;;-146.10;98.55
12763;BME280;6445;52.490;13.378;2022-10-31T00:03:49;117115.03;;;-146.10;98.71
12763;BME280;6445;52.490;13.378;2022-10-31T00:06:15;116854.78;;;-146.10;98.27
12763;BME280;6445;52.490;13.378;2022-10-31T00:08:43;116854.78;;;-146.10;98.60
12763;BME280;6445;52.490;13.378;2022-10-31T00:11:09;117375.28;;;-146.10;99.09
12763;BME280;6445;52.490;13.378;2022-10-31T00:13:34;117895.81;;;-146.10;99.40
12763;BME280;6445;52.490;13.378;2022-10-31T00:16:00;117895.81;;;-146.10;99.58
12763;BME280;6445;52.490;13.378;2022-10-31T00:18:25;118156.13;;;-146.10;99.82
12763;BME280;6445;52.490;13.378;2022-10-31T00:21:01;118156.13;;;-146.10;99.88
12763;BME280;6445;52.490;13.378;2022-10-31T00:23:26;118156.13;;;-146.10;99.95
12763;BME280;6445;52.490;13.378;2022-10-31T00:25:51;118156.13;;;-146.10;99.94
12763;BME280;6445;52.490;13.378;2022-10-31T00:28:16;118156.13;;;-146.10;99.90
12763;BME280;6445;52.490;13.378;2022-10-31T00:30:42;118156.13;;;-146.10;99.79
12763;BME280;6445;52.490;13.378;2022-10-31T00:33:07;117895.81;;;-146.10;99.47
12763;BME280;6445;52.490;13.378;2022-10-31T00:35:32;117635.53;;;-146.10;99.04
12763;BME280;6445;52.490;13.378;2022-10-31T00:37:58;117375.28;;;-146.10;98.75
12763;BME280;6445;52.490;13.378;2022-10-31T00:40:23;117115.03;;;-146.10;98.57
12763;BME280;6445;52.490;13.378;2022-10-31T00:42:48;117115.03;;;-146.10;98.77
12763;BME280;6445;52.490;13.378;2022-10-31T00:45:14;117375.28;;;-146.10;99.20
12763;BME280;6445;52.490;13.378;2022-10-31T00:47:39;117635.53;;;-146.10;99.40
12763;BME280;6445;52.490;13.378;2022-10-31T00:50:05;117895.81;;;-146.10;99.71
12763;BME280;6445;52.490;13.378;2022-10-31T00:52:30;118156.13;;;-146.10;100.00
12763;BME280;6445;52.490;13.378;2022-10-31T00:54:56;118156.13;;;-146.10;99.81
12763;BME280;6445;52.490;13.378;2022-10-31T00:57:21;118156.13;;;-146.10;99.86
12763;BME280;6445;52.490;13.378;2022-10-31T00:59:46;118156.13;;;-146.10;99.91
12763;BME280;6445;52.490;13.378;2022-10-31T01:02:11;118416.44;;;-146.10;100.00
12763;BME280;6445;52.490;13.378;2022-10-31T01:04:37;118416.44;;;-146.10;100.00
12763;BME280;6445;52.490;13.378;2022-10-31T01:07:02;118416.44;;;-146.10;100.00
12763;BME280;6445;52.490;13.378;2022-10-31T01:09:27;118418.47;;;-146.10;100.00
12763;BME280;6445;52.490;13.378;2022-10-31T01:11:52;118418.47;;;-146.10;100.00
12763;BME280;6445;52.490;13.378;2022-10-31T01:14:18;118418.47;;;-146.10;100.00
12763;BME280;6445;52.490;13.378;2022-10-31T01:16:43;118418.47;;;-146.10;100.00
12763;BME280;6445;52.490;13.378;2022-10-31T01:19:08;118418.47;;;-146.10;100.00
12763;BME280;6445;52.490;13.378;2022-10-31T01:21:34;118418.47;;;-146.10;100.00
12763;BME280;6445;52.490;13.378;2022-10-31T01:23:59;118418.47;;;-146.10;100.00
12763;BME280;6445;52.490;13.378;2022-10-31T01:26:29;118418.47;;;-146.10;100.00
12763;BME280;6445;52.490;13.378;2022-10-31T01:28:59;118418.47;;;-146.10;100.00
12763;BME280;6445;52.490;13.378;2022-10-31T01:31:28;118418.47;;;-146.10;100.00
12763;BME280;6445;52.490;13.378;2022-10-31T01:33:54;118416.44;;;-146.10;100.00
12763;BME280;6445;52.490;13.378;2022-10-31T01:36:22;118416.44;;;-146.10;100.00
12763;BME280;6445;52.490;13.378;2022-10-31T01:38:48;118416.44;;;-146.10;100.00
12763;BME280;6445;52.490;13.378;2022-10-31T01:41:17;118416.44;;;-146.10;100.00
12763;BME280;6445;52.490;13.378;2022-10-31T01:46:13;118416.44;;;-146.10;100.00
12763;BME280;6445;52.490;13.378;2022-10-31T01:48:40;118416.44;;;-146.10;100.00
12763;BME280;6445;52.490;13.378;2022-10-31T01:51:06;118416.44;;;-146.10;100.00
12763;BME280;6445;52.490;13.378;2022-10-31T01:53:33;118416.44;;;-146.10;100.00
12763;BME280;6445;52.490;13.378;2022-10-31T01:55:59;118416.44;;;-146.10;100.00
12763;BME280;6445;52.490;13.378;2022-10-31T01:58:27;118416.44;;;-146.10;100.00
12763;BME280;6445;52.490;13.378;2022-10-31T02:00:55;118416.44;;;-146.10;100.00
12763;BME280;6445;52.490;13.378;2022-10-31T02:03:22;118416.44;;;-146.10;100.00
12763;BME280;6445;52.490;13.378;2022-10-31T02:05:49;118418.47;;;-146.10;100.00
12763;BME280;6445;52.490;13.378;2022-10-31T02:08:28;118416.44;;;-146.10;100.00
12763;BME280;6445;52.490;13.378;2022-10-31T02:10:54;118416.44;;;-146.10;100.00
12763;BME280;6445;52.490;13.378;2022-10-31T02:13:21;118416.44;;;-146.10;100.00
12763;BME280;6445;52.490;13.378;2022-10-31T02:15:50;118416.44;;;-146.10;100.00
12763;BME280;6445;52.490;13.378;2022-10-31T02:18:17;118416.44;;;-146.10;100.00
12763;BME280;6445;52.490;13.378;2022-10-31T02:20:46;118416.44;;;-146.10;100.00
12763;BME280;6445;52.490;13.378;2022-10-31T02:29:22;118416.44;;;-146.10;100.00
12763;BME280;6445;52.490;13.378;2022-10-31T02:32:00;118416.44;;;-146.10;100.00
12763;BME280;6445;52.490;13.378;2022-10-31T02:35:01;118416.44;;;-146.10;100.00
12763;BME280;6445;52.490;13.378;2022-10-31T02:40:23;118156.13;;;-146.10;100.00
12763;BME280;6445;52.490;13.378;2022-10-31T02:43:12;118156.13;;;-146.10;100.00
12763;BME280;6445;52.490;13.378;2022-10-31T02:45:47;118416.44;;;-146.10;100.00
12763;BME280;6445;52.490;13.378;2022-10-31T02:48:19;118416.44;;;-146.10;100.00
12763;BME280;6445;52.490;13.378;2022-10-31T02:50:52;118418.47;;;-146.10;100.00
12763;BME280;6445;52.490;13.378;2022-10-31T02:53:20;118418.47;;;-146.10;100.00
12763;BME280;6445;52.490;13.378;2022-10-31T02:56:15;118418.47;;;-146.10;100.00
12763;BME280;6445;52.490;13.378;2022-10-31T02:58:51;118418.47;;;-146.10;100.00
12763;BME280;6445;52.490;13.378;2022-10-31T03:04:29;118418.47;;;-146.10;100.00
12763;BME280;6445;52.490;13.378;2022-10-31T03:07:10;118418.47;;;-146.10;100.00
12763;BME280;6445;52.490;13.378;2022-10-31T03:12:40;118418.47;;;-146.10;100.00
12763;BME280;6445;52.490;13.378;2022-10-31T03:17:37;118418.47;;;-146.10;100.00
12763;BME280;6445;52.490;13.378;2022-10-31T03:20:09;118418.47;;;-146.10;100.00
12763;BME280;6445;52.490;13.378;2022-10-31T03:22:35;118418.47;;;-146.10;100.00
12763;BME280;6445;52.490;13.378;2022-10-31T03:25:04;118418.47;;;-146.10;100.00
12763;BME280;6445;52.490;13.378;2022-10-31T03:27:33;118418.47;;;-146.10;100.00
12763;BME280;6445;52.490;13.378;2022-10-31T03:30:02;118418.47;;;-146.10;100.00
12763;BME280;6445;52.490;13.378;2022-10-31T03:32:35;118418.47;;;-146.10;100.00
12763;BME280;6445;52.490;13.378;2022-10-31T03:35:05;118418.47;;;-146.10;100.00
12763;BME280;6445;52.490;13.378;2022-10-31T03:37:33;118418.47;;;-146.10;100.00
12763;BME280;6445;52.490;13.378;2022-10-31T03:40:00;118418.47;;;-146.10;100.00
12763;BME280;6445;52.490;13.378;2022-10-31T03:42:29;118418.47;;;-146.10;100.00
12763;BME280;6445;52.490;13.378;2022-10-31T03:44:59;118418.47;;;-146.10;100.00
12763;BME280;6445;52.490;13.378;2022-10-31T03:47:26;118418.47;;;-146.10;100.00
12763;BME280;6445;52.490;13.378;2022-10-31T03:49:52;118418.47;;;-146.10;100.00
12763;BME280;6445;52.490;13.378;2022-10-31T03:52:19;118418.47;;;-146.10;100.00
12763;BME280;6445;52.490;13.378;2022-10-31T03:54:55;118418.47;;;-146.10;100.00
12763;BME280;6445;52.490;13.378;2022-10-31T03:57:42;118418.47;;;-146.10;100.00
12763;BME280;6445;52.490;13.378;2022-10-31T04:00:11;118418.47;;;-146.10;100.00
12763;BME280;6445;52.490;13.378;2022-10-31T04:02:40;118418.47;;;-146.10;100.00
12763;BME280;6445;52.490;13.378;2022-10-31T04:05:07;118418.47;;;-146.10;100.00
12763;BME280;6445;52.490;13.378;2022-10-31T04:07:36;118418.47;;;-146.10;100.00
12763;BME280;6445;52.490;13.378;2022-10-31T04:10:05;118418.47;;;-146.10;100.00
12763;BME280;6445;52.490;13.378;2022-10-31T04:12:34;118416.44;;;-146.10;100.00
12763;BME280;6445;52.490;13.378;2022-10-31T04:15:03;118416.44;;;-146.10;100.00
12763;BME280;6445;52.490;13.378;2022-10-31T04:17:32;118416.44;;;-146.10;100.00
12763;BME280;6445;52.490;13.378;2022-10-31T04:19:59;118416.44;;;-146.10;100.00
12763;BME280;6445;52.490;13.378;2022-10-31T04:22:25;118416.44;;;-146.10;100.00
12763;BME280;6445;52.490;13.378;2022-10-31T04:24:50;118418.47;;;-146.10;100.00
12763;BME280;6445;52.490;13.378;2022-10-31T04:27:16;118418.47;;;-146.10;100.00
12763;BME280;6445;52.490;13.378;2022-10-31T04:29:41;118418.47;;;-146.10;100.00
12763;BME280;6445;52.490;13.378;2022-10-31T04:32:06;118416.44;;;-146.10;100.00
12763;BME280;6445;52.490;13.378;2022-10-31T04:34:31;118416.44;;;-146.10;100.00
12763;BME280;6445;52.490;13.378;2022-10-31T04:36:57;118416.44;;;-146.10;100.00
12763;BME280;6445;52.490;13.378;2022-10-31T04:39:22;118416.44;;;-146.10;100.00
12763;BME280;6445;52.490;13.378;2022-10-31T04:41:47;118416.44;;;-146.10;100.00
12763;BME280;6445;52.490;13.378;2022-10-31T04:44:12;118418.47;;;-146.10;100.00
12763;BME280;6445;52.490;13.378;2022-10-31T04:46:38;118418.47;;;-146.10;100.00
12763;BME280;6445;52.490;13.378;2022-10-31T04:49:03;118418.47;;;-146.10;100.00
12763;BME280;6445;52.490;13.378;2022-10-31T04:51:28;118418.47;;;-146.10;100.00
12763;BME280;6445;52.490;13.378;2022-10-31T04:53:53;118418.47;;;-146.10;100.00
12763;BME280;6445;52.490;13.378;2022-10-31T04:56:18;118418.47;;;-146.10;100.00
12763;BME280;6445;52.490;13.378;2022-10-31T04:58:44;118418.47;;;-146.10;100.00
12763;BME280;6445;52.490;13.378;2022-10-31T05:01:09;118418.47;;;-146.10;100.00
12763;BME280;6445;52.490;13.378;2022-10-31T05:03:34;118418.47;;;-146.10;100.00
12763;BME280;6445;52.490;13.378;2022-10-31T05:06:00;118418.47;;;-146.10;100.00
12763;BME280;6445;52.490;13.378;2022-10-31T05:08:25;118418.47;;;-146.10;100.00
12763;BME280;6445;52.490;13.378;2022-10-31T05:10:50;118418.47;;;-146.10;100.00
12763;BME280;6445;52.490;13.378;2022-10-31T05:13:16;118418.47;;;-146.10;100.00
12763;BME280;6445;52.490;13.378;2022-10-31T05:15:42;118418.47;;;-146.10;100.00
12763;BME280;6445;52.490;13.378;2022-10-31T05:18:07;118418.47;;;-146.10;100.00
12763;BME280;6445;52.490;13.378;2022-10-31T05:20:32;118418.47;;;-146.10;100.00
12763;BME280;6445;52.490;13.378;2022-10-31T05:22:58;118418.47;;;-146.10;100.00
12763;BME280;6445;52.490;13.378;2022-10-31T05:25:26;118418.47;;;-146.10;100.00
12763;BME280;6445;52.490;13.378;2022-10-31T05:27:52;118418.47;;;-146.10;100.00
12763;BME280;6445;52.490;13.378;2022-10-31T05:30:29;118418.47;;;-146.10;100.00
12763;BME280;6445;52.490;13.378;2022-10-31T05:32:55;118418.47;;;-146.10;100.00
12763;BME280;6445;52.490;13.378;2022-10-31T05:35:26;118418.47;;;-146.10;100.00
12763;BME280;6445;52.490;13.378;2022-10-31T05:37:52;118418.47;;;-146.10;100.00
12763;BME280;6445;52.490;13.378;2022-10-31T05:40:19;118418.47;;;-146.10;100.00
12763;BME280;6445;52.490;13.378;2022-10-31T05:42:45;118418.47;;;-146.10;100.00
12763;BME280;6445;52.490;13.378;2022-10-31T05:45:13;118418.47;;;-146.10;100.00
12763;BME280;6445;52.490;13.378;2022-10-31T05:47:39;118418.47;;;-146.10;100.00
12763;BME280;6445;52.490;13.378;2022-10-31T05:50:05;118418.47;;;-146.10;100.00
12763;BME280;6445;52.490;13.378;2022-10-31T05:52:31;118418.47;;;-146.10;100.00
12763;BME280;6445;52.490;13.378;2022-10-31T05:54:56;118418.47;;;-146.10;100.00
12763;BME280;6445;52.490;13.378;2022-10-31T05:57:21;118418.47;;;-146.10;100.00
12763;BME280;6445;52.490;13.378;2022-10-31T05:59:47;118418.47;;;-146.10;100.00
12763;BME280;6445;52.490;13.378;2022-10-31T06:02:12;118418.47;;;-146.10;100.00
12763;BME280;6445;52.490;13.378;2022-10-31T06:04:37;118418.47;;;-146.10;100.00
12763;BME280;6445;52.490;13.378;2022-10-31T06:07:02;118418.47;;;-146.10;100.00
12763;BME280;6445;52.490;13.378;2022-10-31T06:09:28;118418.47;;;-146.10;100.00
12763;BME280;6445;52.490;13.378;2022-10-31T06:11:53;118418.47;;;-146.10;100.00
12763;BME280;6445;52.490;13.378;2022-10-31T06:14:18;118418.47;;;-146.10;100.00
12763;BME280;6445;52.490;13.378;2022-10-31T06:16:43;118418.47;;;-146.10;100.00
12763;BME280;6445;52.490;13.378;2022-10-31T06:19:09;118418.47;;;-146.10;100.00
12763;BME280;6445;52.490;13.378;2022-10-31T06:21:34;118418.47;;;-146.10;100.00
12763;BME280;6445;52.490;13.378;2022-10-31T06:23:59;118418.47;;;-146.10;100.00
12763;BME280;6445;52.490;13.378;2022-10-31T06:26:25;118418.47;;;-146.10;100.00
12763;BME280;6445;52.490;13.378;2022-10-31T06:28:50;118418.47;;;-146.10;100.00
12763;BME280;6445;52.490;13.378;2022-10-31T06:31:15;118418.47;;;-146.10;100.00
12763;BME280;6445;52.490;13.378;2022-10-31T06:33:41;118418.47;;;-146.10;100.00
12763;BME280;6445;52.490;13.378;2022-10-31T06:36:07;118418.47;;;-146.10;100.00
12763;BME280;6445;52.490;13.378;2022-10-31T06:38:32;118418.47;;;-146.10;100.00
12763;BME280;6445;52.490;13.378;2022-10-31T06:40:57;118418.47;;;-146.10;100.00
12763;BME280;6445;52.490;13.378;2022-10-31T06:43:22;118418.47;;;-146.10;100.00
12763;BME280;6445;52.490;13.378;2022-10-31T06:45:48;118418.47;;;-146.10;100.00
12763;BME280;6445;52.490;13.378;2022-10-31T06:48:13;118418.47;;;-146.10;100.00
12763;BME280;6445;52.490;13.378;2022-10-31T06:50:38;118416.44;;;-146.10;100.00
12763;BME280;6445;52.490;13.378;2022-10-31T06:53:03;118416.44;;;-146.10;100.00
12763;BME280;6445;52.490;13.378;2022-10-31T06:55:29;118416.44;;;-146.10;100.00
12763;BME280;6445;52.490;13.378;2022-10-31T06:57:56;118416.44;;;-146.10;99.88
12763;BME280;6445;52.490;13.378;2022-10-31T07:00:22;118156.13;;;-146.10;99.59
12763;BME280;6445;52.490;13.378;2022-10-31T07:03:02;118156.13;;;-146.10;99.46
12763;BME280;6445;52.490;13.378;2022-10-31T07:05:28;118156.13;;;-146.10;99.43
12763;BME280;6445;52.490;13.378;2022-10-31T07:07:55;117115.03;;;-146.10;97.83
12763;BME280;6445;52.490;13.378;2022-10-31T07:10:21;116334.38;;;-146.10;97.53
12763;BME280;6445;52.490;13.378;2022-10-31T07:12:46;116854.78;;;-146.10;97.82
12763;BME280;6445;52.490;13.378;2022-10-31T07:15:12;117635.53;;;-146.10;98.47
12763;BME280;6445;52.490;13.378;2022-10-31T07:17:37;117375.28;;;-146.10;97.87
12763;BME280;6445;52.490;13.378;2022-10-31T07:20:03;112953.25;;;-146.10;94.67
12763;BME280;6445;52.490;13.378;2022-10-31T07:22:35;103864.19;;;-146.10;91.08
12763;BME280;6445;52.490;13.378;2022-10-31T07:25:01;73885.56;;;-146.10;84.74
12763;BME280;6445;52.490;13.378;2022-10-31T07:27:26;58484.88;;;-146.10;80.71
12763;BME280;6445;52.490;13.378;2022-10-31T07:29:51;53748.78;;;-146.10;75.35
12763;BME280;6445;52.490;13.378;2022-10-31T07:32:16;53096.38;;;-146.10;73.95
12763;BME280;6445;52.490;13.378;2022-10-31T07:34:42;53124.41;;;-146.10;74.18
12763;BME280;6445;52.490;13.378;2022-10-31T07:37:07;52852.28;;;-146.10;72.68
12763;BME280;6445;52.490;13.378;2022-10-31T07:39:32;52724.22;;;-146.10;70.96
12763;BME280;6445;52.490;13.378;2022-10-31T07:41:58;52482.13;;;-146.10;67.02
12763;BME280;6445;52.490;13.378;2022-10-31T07:44:23;52524.13;;;-146.10;68.19
12763;BME280;6445;52.490;13.378;2022-10-31T07:46:49;52440.09;;;-146.10;66.57
12763;BME280;6445;52.490;13.378;2022-10-31T07:49:14;52448.09;;;-146.10;66.94
12763;BME280;6445;52.490;13.378;2022-10-31T07:51:39;52454.09;;;-146.10;65.95
12763;BME280;6445;52.490;13.378;2022-10-31T07:54:04;52402.09;;;-146.10;65.14
12763;BME280;6445;52.490;13.378;2022-10-31T07:56:30;52390.09;;;-146.10;66.03
12763;BME280;6445;52.490;13.378;2022-10-31T07:58:55;52432.09;;;-146.10;67.84
12763;BME280;6445;52.490;13.378;2022-10-31T08:01:20;52494.13;;;-146.10;70.25
12763;BME280;6445;52.490;13.378;2022-10-31T08:03:45;52522.13;;;-146.10;70.41
12763;BME280;6445;52.490;13.378;2022-10-31T08:06:11;52560.16;;;-146.10;71.02
12763;BME280;6445;52.490;13.378;2022-10-31T08:08:36;52570.16;;;-146.10;71.00
12763;BME280;6445;52.490;13.378;2022-10-31T08:11:02;52618.16;;;-146.10;71.73
12763;BME280;6445;52.490;13.378;2022-10-31T08:13:27;52592.16;;;-146.10;71.55
12763;BME280;6445;52.490;13.378;2022-10-31T08:15:52;52648.19;;;-146.10;71.96
12763;BME280;6445;52.490;13.378;2022-10-31T08:18:18;52658.19;;;-146.10;72.15
12763;BME280;6445;52.490;13.378;2022-10-31T08:20:44;52674.19;;;-146.10;71.70
12763;BME280;6445;52.490;13.378;2022-10-31T08:23:11;52604.16;;;-146.10;71.24
12763;BME280;6445;52.490;13.378;2022-10-31T08:25:36;52674.19;;;-146.10;71.88
12763;BME280;6445;52.490;13.378;2022-10-31T08:28:02;52652.19;;;-146.10;72.28
12763;BME280;6445;52.490;13.378;2022-10-31T08:30:30;52834.25;;;-146.10;73.92
12763;BME280;6445;52.490;13.378;2022-10-31T08:33:22;52836.25;;;-146.10;73.67
12763;BME280;6445;52.490;13.378;2022-10-31T08:35:47;52884.28;;;-146.10;73.69
12763;BME280;6445;52.490;13.378;2022-10-31T08:38:13;52748.22;;;-146.10;72.86
12763;BME280;6445;52.490;13.378;2022-10-31T08:40:39;52702.19;;;-146.10;72.27
12763;BME280;6445;52.490;13.378;2022-10-31T08:43:06;52624.16;;;-146.10;71.57
12763;BME280;6445;52.490;13.378;2022-10-31T08:45:34;52536.13;;;-146.10;69.16
12763;BME280;6445;52.490;13.378;2022-10-31T08:48:01;52470.13;;;-146.10;66.67
12763;BME280;6445;52.490;13.378;2022-10-31T08:50:28;52418.09;;;-146.10;62.80
12763;BME280;6445;52.490;13.378;2022-10-31T08:52:53;52392.09;;;-146.10;61.63
12763;BME280;6445;52.490;13.378;2022-10-31T08:55:19;52400.09;;;-146.10;59.21
12763;BME280;6445;52.490;13.378;2022-10-31T08:57:44;52440.09;;;-146.10;55.00
12763;BME280;6445;52.490;13.378;2022-10-31T09:00:10;52466.09;;;-146.10;51.00
12763;BME280;6445;52.490;13.378;2022-10-31T09:02:35;52428.09;;;-146.10;51.51
12763;BME280;6445;52.490;13.378;2022-10-31T09:05:02;52434.09;;;-146.10;53.11
12763;BME280;6445;52.490;13.378;2022-10-31T09:07:27;52430.09;;;-146.10;52.25
12763;BME280;6445;52.490;13.378;2022-10-31T09:09:52;52516.13;;;-146.10;49.00
12763;BME280;6445;52.490;13.378;2022-10-31T09:12:18;52578.16;;;-146.10;45.63
12763;BME280;6445;52.490;13.378;2022-10-31T09:14:43;52532.13;;;-146.10;45.11
12763;BME280;6445;52.490;13.378;2022-10-31T09:17:08;52426.09;;;-146.10;49.68
12763;BME280;6445;52.490;13.378;2022-10-31T09:19:33;52374.06;;;-146.10;52.63
12763;BME280;6445;52.490;13.378;2022-10-31T09:21:59;52372.06;;;-146.10;54.95
12763;BME280;6445;52.490;13.378;2022-10-31T09:24:24;52332.06;;;-146.10;58.09
12763;BME280;6445;52.490;13.378;2022-10-31T09:26:49;52356.06;;;-146.10;57.62
12763;BME280;6445;52.490;13.378;2022-10-31T09:29:14;52376.06;;;-146.10;56.12
12763;BME280;6445;52.490;13.378;2022-10-31T09:31:40;52324.06;;;-146.10;56.96
12763;BME280;6445;52.490;13.378;2022-10-31T09:34:05;52340.06;;;-146.10;57.91
12763;BME280;6445;52.490;13.378;2022-10-31T09:36:30;52386.09;;;-146.10;53.14
12763;BME280;6445;52.490;13.378;2022-10-31T09:38:55;52404.09;;;-146.10;52.08
12763;BME280;6445;52.490;13.378;2022-10-31T09:41:42;52288.06;;;-146.10;56.43
12763;BME280;6445;52.490;13.378;2022-10-31T09:44:31;52262.03;;;-146.10;61.49
12763;BME280;6445;52.490;13.378;2022-10-31T09:47:13;52296.06;;;-146.10;64.30
12763;BME280;6445;52.490;13.378;2022-10-31T09:52:21;52308.06;;;-146.10;66.77
12763;BME280;6445;52.490;13.378;2022-10-31T09:54:52;52344.06;;;-146.10;68.05
12763;BME280;6445;52.490;13.378;2022-10-31T09:57:25;52376.06;;;-146.10;69.01
12763;BME280;6445;52.490;13.378;2022-10-31T09:59:51;52424.09;;;-146.10;66.82
12763;BME280;6445;52.490;13.378;2022-10-31T10:02:24;52380.09;;;-146.10;58.39
12763;BME280;6445;52.490;13.378;2022-10-31T10:04:57;52374.06;;;-146.10;55.36
12763;BME280;6445;52.490;13.378;2022-10-31T10:07:55;52370.06;;;-146.10;54.07
12763;BME280;6445;52.490;13.378;2022-10-31T10:13:09;52444.09;;;-146.10;49.38
12763;BME280;6445;52.490;13.378;2022-10-31T10:16:03;52490.13;;;-146.10;46.41
12763;BME280;6445;52.490;13.378;2022-10-31T10:21:37;52358.06;;;-146.10;51.69
12763;BME280;6445;52.490;13.378;2022-10-31T10:24:32;52344.06;;;-146.10;55.30
12763;BME280;6445;52.490;13.378;2022-10-31T10:27:23;52420.09;;;-146.10;52.11
12763;BME280;6445;52.490;13.378;2022-10-31T10:30:04;52400.09;;;-146.10;51.54
12763;BME280;6445;52.490;13.378;2022-10-31T10:32:53;52426.09;;;-146.10;49.59
12763;BME280;6445;52.490;13.378;2022-10-31T10:35:24;52414.09;;;-146.10;49.53
12763;BME280;6445;52.490;13.378;2022-10-31T10:37:58;52394.09;;;-146.10;50.30
12763;BME280;6445;52.490;13.378;2022-10-31T10:40:27;52352.06;;;-146.10;52.41
12763;BME280;6445;52.490;13.378;2022-10-31T10:43:01;52362.06;;;-146.10;54.00
12763;BME280;6445;52.490;13.378;2022-10-31T10:48:51;52368.06;;;-146.10;52.91
12763;BME280;6445;52.490;13.378;2022-10-31T10:51:23;52472.13;;;-146.10;48.54
12763;BME280;6445;52.490;13.378;2022-10-31T10:54:10;52370.06;;;-146.10;52.91
12763;BME280;6445;52.490;13.378;2022-10-31T10:56:58;52342.06;;;-146.10;54.58
12763;BME280;6445;52.490;13.378;2022-10-31T10:59:26;52350.06;;;-146.10;53.77
12763;BME280;6445;52.490;13.378;2022-10-31T11:01:51;52332.06;;;-146.10;54.90
12763;BME280;6445;52.490;13.378;2022-10-31T11:07:04;52352.06;;;-146.10;56.16
12763;BME280;6445;52.490;13.378;2022-10-31T11:09:30;52360.06;;;-146.10;55.60
12763;BME280;6445;52.490;13.378;2022-10-31T11:11:57;52370.06;;;-146.10;54.14
12763;BME280;6445;52.490;13.378;2022-10-31T11:14:23;52342.06;;;-146.10;56.65
12763;BME280;6445;52.490;13.378;2022-10-31T11:16:53;52312.06;;;-146.10;56.89
12763;BME280;6445;52.490;13.378;2022-10-31T11:19:22;52314.06;;;-146.10;56.93
12763;BME280;6445;52.490;13.378;2022-10-31T11:21:47;52442.09;;;-146.10;53.68
12763;BME280;6445;52.490;13.378;2022-10-31T11:24:16;52382.09;;;-146.10;54.17
12763;BME280;6445;52.490;13.378;2022-10-31T11:26:43;52420.09;;;-146.10;51.07
12763;BME280;6445;52.490;13.378;2022-10-31T11:31:39;52454.09;;;-146.10;49.55
12763;BME280;6445;52.490;13.378;2022-10-31T11:34:12;52462.09;;;-146.10;47.84
12763;BME280;6445;52.490;13.378;2022-10-31T11:36:43;52574.16;;;-146.10;44.75
12763;BME280;6445;52.490;13.378;2022-10-31T11:39:22;52574.16;;;-146.10;43.81
12763;BME280;6445;52.490;13.378;2022-10-31T11:41:50;52444.09;;;-146.10;47.46
12763;BME280;6445;52.490;13.378;2022-10-31T11:44:27;52486.13;;;-146.10;45.54
12763;BME280;6445;52.490;13.378;2022-10-31T11:46:56;52540.13;;;-146.10;44.73
12763;BME280;6445;52.490;13.378;2022-10-31T11:49:34;52478.13;;;-146.10;45.94
12763;BME280;6445;52.490;13.378;2022-10-31T11:52:05;52508.13;;;-146.10;46.90
12763;BME280;6445;52.490;13.378;2022-10-31T11:54:40;52512.13;;;-146.10;45.58
12763;BME280;6445;52.490;13.378;2022-10-31T11:57:22;52576.16;;;-146.10;43.60
12763;BME280;6445;52.490;13.378;2022-10-31T11:59:52;52580.16;;;-146.10;42.83
12763;BME280;6445;52.490;13.378;2022-10-31T12:02:18;52652.19;;;-146.10;41.73
12763;BME280;6445;52.490;13.378;2022-10-31T12:04:47;52726.22;;;-146.10;40.17
12763;BME280;6445;52.490;13.378;2022-10-31T12:07:14;52746.22;;;-146.10;38.72
12763;BME280;6445;52.490;13.378;2022-10-31T12:09:40;52718.22;;;-146.10;39.20
12763;BME280;6445;52.490;13.378;2022-10-31T12:15:13;52784.25;;;-146.10;37.83
12763;BME280;6445;52.490;13.378;2022-10-31T12:17:51;52808.25;;;-146.10;38.19
12763;BME280;6445;52.490;13.378;2022-10-31T12:20:45;52708.22;;;-146.10;39.52
12763;BME280;6445;52.490;13.378;2022-10-31T12:40:21;52702.19;;;-146.10;39.17
12763;BME280;6445;52.490;13.378;2022-10-31T12:45:31;52528.13;;;-146.10;43.49
12763;BME280;6445;52.490;13.378;2022-10-31T12:51:11;52592.16;;;-146.10;43.30
12763;BME280;6445;52.490;13.378;2022-10-31T12:54:03;52628.16;;;-146.10;41.52
12763;BME280;6445;52.490;13.378;2022-10-31T12:57:06;52634.19;;;-146.10;41.60
12763;BME280;6445;52.490;13.378;2022-10-31T12:59:42;52638.19;;;-146.10;40.82
12763;BME280;6445;52.490;13.378;2022-10-31T13:02:38;52594.16;;;-146.10;41.08
12763;BME280;6445;52.490;13.378;2022-10-31T13:05:39;52636.19;;;-146.10;41.53
12763;BME280;6445;52.490;13.378;2022-10-31T13:08:17;52612.16;;;-146.10;41.77
12763;BME280;6445;52.490;13.378;2022-10-31T13:11:06;52630.16;;;-146.10;41.03
12763;BME280;6445;52.490;13.378;2022-10-31T13:13:50;52656.19;;;-146.10;40.78
12763;BME280;6445;52.490;13.378;2022-10-31T13:16:22;52674.19;;;-146.10;40.19
12763;BME280;6445;52.490;13.378;2022-10-31T13:18:57;52608.16;;;-146.10;40.88
12763;BME280;6445;52.490;13.378;2022-10-31T13:21:35;52568.16;;;-146.10;41.79
12763;BME280;6445;52.490;13.378;2022-10-31T13:24:04;52554.16;;;-146.10;43.19
12763;BME280;6445;52.490;13.378;2022-10-31T13:26:40;52512.13;;;-146.10;44.32
12763;BME280;6445;52.490;13.378;2022-10-31T13:29:18;52464.09;;;-146.10;46.15
12763;BME280;6445;52.490;13.378;2022-10-31T13:31:45;52488.13;;;-146.10;45.85
12763;BME280;6445;52.490;13.378;2022-10-31T13:34:33;52458.09;;;-146.10;46.54
12763;BME280;6445;52.490;13.378;2022-10-31T13:42:17;52434.09;;;-146.10;47.44
12763;BME280;6445;52.490;13.378;2022-10-31T13:44:44;52430.09;;;-146.10;47.90
12763;BME280;6445;52.490;13.378;2022-10-31T13:47:25;52406.09;;;-146.10;49.12
12763;BME280;6445;52.490;13.378;2022-10-31T13:49:51;52404.09;;;-146.10;49.67